Alcova, Wyoming
Current Conditions -  °F | °C
As of 4:53 AM on Sunday 23 Nov 2014 (Local Time) from KCPR Reporting Station
Clear Clear  
Wind Chill: 12°   Ceiling: Unl
Heat Index: 21°   Visibility: 10mi
Dew Point: 16°   Wind: 7mph
Humidity: 81%   Direction: 250°WSW
Pressure: 29.75"   Gusts: NA
Location:  42.55°N, 106.72°W
Report Text: KCPR 231153Z 25006KT 10SM CLR M06/M09 A2975 RMK AO2 SLP091 T10611089 10017 21061 51010
Loading
Personal Weather Stations






























Interactive Weather Map New forecast layout! Learn more

10-Day Weather Forecast

Advertisements
Track Severe Weather on mobile